Time;durP1;ratioP1;P1;durP2;ratioP2;P2;SDS_P1;SDS_P2;PMS_P1;PMS_P2;Temp;Humidity;BMP_temperature;BMP_pressure;BME280_temperature;BME280_humidity;BME280_pressure;Samples;Min_cycle;Max_cycle;Signal;HPM_P1;HPM_P2
2022/04/04 00:00:48;;;;;;;5.47;3.88;;;5.60;99.90;;;;;;4141344;28;20538;-64
2022/04/04 00:02:49;;;;;;;5.93;3.83;;;5.60;99.90;;;;;;4141355;28;20038;-63
2022/04/04 00:04:49;;;;;;;5.07;3.47;;;5.60;99.90;;;;;;4142894;28;20038;-63
2022/04/04 00:06:50;;;;;;;6.07;3.63;;;5.60;99.90;;;;;;4143189;28;20497;-64
2022/04/04 00:08:50;;;;;;;4.80;3.58;;;5.60;99.90;;;;;;4141736;28;20502;-64
2022/04/04 00:10:51;;;;;;;5.05;3.67;;;5.60;99.90;;;;;;4141353;28;20493;-64
2022/04/04 00:12:51;;;;;;;6.40;3.95;;;5.60;99.90;;;;;;4141604;28;20112;-64
2022/04/04 00:14:52;;;;;;;7.45;4.30;;;5.50;99.90;;;;;;4143012;28;20501;-64
2022/04/04 00:16:53;;;;;;;5.35;3.53;;;5.50;99.90;;;;;;4142261;28;20061;-64
2022/04/04 00:18:53;;;;;;;4.65;3.42;;;5.50;99.90;;;;;;4141687;28;20442;-64
2022/04/04 00:20:54;;;;;;;5.20;3.38;;;5.50;99.90;;;;;;4142362;28;20091;-64
2022/04/04 00:22:54;;;;;;;6.22;4.00;;;5.50;99.90;;;;;;4141740;28;20077;-64
2022/04/04 00:24:55;;;;;;;5.38;3.45;;;5.50;99.90;;;;;;4141664;28;20045;-63
2022/04/04 00:26:57;;;;;;;4.75;3.53;;;5.40;99.90;;;;;;4143049;28;20044;-64
2022/04/04 00:28:57;;;;;;;4.75;3.55;;;5.40;99.90;;;;;;4141321;28;20541;-64
2022/04/04 00:30:58;;;;;;;5.15;3.45;;;5.40;99.90;;;;;;4141920;28;20521;-64
2022/04/04 00:32:59;;;;;;;5.32;3.60;;;5.40;99.90;;;;;;4144443;28;20030;-64
2022/04/04 00:35:00;;;;;;;4.80;3.60;;;5.40;99.90;;;;;;4141269;28;20493;-63
2022/04/04 00:37:01;;;;;;;6.45;3.45;;;5.40;99.90;;;;;;4142672;28;20041;-64
2022/04/04 00:39:01;;;;;;;7.75;4.07;;;5.40;99.90;;;;;;4141882;28;20030;-63
2022/04/04 00:41:10;;;;;;;4.93;3.35;;;5.40;99.90;;;;;;4140398;28;20093;-64
2022/04/04 00:43:11;;;;;;;7.82;3.90;;;5.40;99.90;;;;;;4142992;28;20034;-64
2022/04/04 00:45:11;;;;;;;5.65;3.35;;;5.30;99.90;;;;;;4142980;28;20113;-65
2022/04/04 00:47:12;;;;;;;4.20;3.40;;;5.30;99.90;;;;;;4142662;28;20030;-63
2022/04/04 00:49:13;;;;;;;5.95;3.92;;;5.30;99.90;;;;;;4142025;28;20084;-63
2022/04/04 00:51:14;;;;;;;4.57;3.63;;;5.30;99.90;;;;;;4142427;28;20532;-63
2022/04/04 00:53:15;;;;;;;4.45;3.42;;;5.20;99.90;;;;;;4142102;28;20113;-65
2022/04/04 00:55:15;;;;;;;5.60;3.70;;;5.20;99.90;;;;;;4142789;28;20076;-64
2022/04/04 00:57:16;;;;;;;6.95;3.97;;;5.20;99.90;;;;;;4142778;28;20115;-65
2022/04/04 00:59:17;;;;;;;5.40;3.83;;;5.20;99.90;;;;;;4141450;28;20077;-64
2022/04/04 01:01:20;;;;;;;5.97;3.50;;;5.10;99.90;;;;;;4143182;28;20122;-64
2022/04/04 01:03:21;;;;;;;5.57;3.53;;;5.10;99.90;;;;;;4142765;28;20125;-64
2022/04/04 01:05:21;;;;;;;5.97;3.85;;;5.20;99.90;;;;;;4140575;28;20034;-63
2022/04/04 01:07:22;;;;;;;6.38;4.05;;;5.10;99.90;;;;;;4141693;28;20045;-64
2022/04/04 01:09:22;;;;;;;6.10;3.78;;;5.10;99.90;;;;;;4143007;28;20054;-64
2022/04/04 01:11:23;;;;;;;9.23;3.85;;;5.00;99.90;;;;;;4142760;28;20397;-63
2022/04/04 01:13:23;;;;;;;7.03;3.95;;;5.00;99.90;;;;;;4142976;28;20026;-64
2022/04/04 01:15:30;;;;;;;6.25;3.60;;;5.00;99.90;;;;;;4149228;28;20033;-63
2022/04/04 01:17:30;;;;;;;6.68;3.92;;;5.00;99.90;;;;;;4149243;28;20042;-63
2022/04/04 01:19:32;;;;;;;7.60;3.92;;;5.00;99.90;;;;;;4150494;28;20045;-64
2022/04/04 01:21:32;;;;;;;7.20;4.03;;;5.00;99.90;;;;;;4146629;28;20468;-63
2022/04/04 01:23:40;;;;;;;5.72;4.00;;;5.00;99.90;;;;;;4145899;28;20033;-64
2022/04/04 01:25:40;;;;;;;7.43;3.95;;;5.00;99.90;;;;;;4146077;28;20053;-63
2022/04/04 01:27:45;;;;;;;7.95;3.60;;;4.90;99.90;;;;;;4140329;28;20623;-63
2022/04/04 01:29:45;;;;;;;5.63;3.80;;;4.90;99.90;;;;;;4159351;28;20068;-63
2022/04/04 01:31:47;;;;;;;5.10;3.25;;;4.90;99.90;;;;;;4151108;28;20041;-63
2022/04/04 01:33:48;;;;;;;5.68;3.60;;;4.90;99.90;;;;;;4149353;28;20053;-64
2022/04/04 01:35:48;;;;;;;4.75;3.58;;;4.80;99.90;;;;;;4143994;28;20038;-64
2022/04/04 01:37:49;;;;;;;5.70;3.80;;;4.70;99.90;;;;;;4149445;28;20045;-62
2022/04/04 01:39:50;;;;;;;6.90;3.80;;;4.80;99.90;;;;;;4146845;28;20057;-65
2022/04/04 01:41:51;;;;;;;5.18;3.70;;;4.70;99.90;;;;;;4152932;28;20504;-64
2022/04/04 01:43:52;;;;;;;5.38;4.03;;;4.70;99.90;;;;;;4152846;28;20073;-64
2022/04/04 01:48:12;;;;;;;9.02;4.47;;;4.60;99.90;;;;;;4149226;28;20426;-63
2022/04/04 01:50:12;;;;;;;6.30;4.15;;;4.70;99.90;;;;;;4153069;28;20045;-64
2022/04/04 01:52:13;;;;;;;7.30;4.45;;;4.60;99.90;;;;;;4152244;28;20030;-63
2022/04/04 01:54:13;;;;;;;6.07;3.75;;;4.60;99.90;;;;;;4151104;28;20045;-63
2022/04/04 01:56:15;;;;;;;6.80;4.68;;;4.60;99.90;;;;;;4150870;28;20030;-63
2022/04/04 01:58:16;;;;;;;6.93;4.47;;;4.60;99.90;;;;;;4152876;28;20405;-63
2022/04/04 02:00:16;;;;;;;6.57;4.00;;;4.60;99.90;;;;;;4149910;28;20034;-64
2022/04/04 02:02:17;;;;;;;5.82;4.43;;;4.50;99.90;;;;;;4151197;28;20034;-64
2022/04/04 02:04:18;;;;;;;6.20;4.38;;;4.50;99.90;;;;;;4151462;28;20056;-65
2022/04/04 02:06:19;;;;;;;6.53;4.30;;;4.60;99.90;;;;;;4156460;28;20038;-64
2022/04/04 02:08:20;;;;;;;11.50;4.70;;;4.60;99.90;;;;;;4150572;28;20030;-65
2022/04/04 02:10:21;;;;;;;7.45;4.70;;;4.60;99.90;;;;;;4159623;28;20515;-64
2022/04/04 02:12:24;;;;;;;7.38;4.75;;;4.60;99.90;;;;;;4150795;28;20105;-64
2022/04/04 02:14:24;;;;;;;9.85;4.78;;;4.50;99.90;;;;;;4148787;28;20079;-63
2022/04/04 02:16:26;;;;;;;10.68;5.10;;;4.50;99.90;;;;;;4153652;28;20077;-64
2022/04/04 02:18:27;;;;;;;7.93;5.38;;;4.60;99.90;;;;;;4149803;28;20076;-64
2022/04/04 02:20:28;;;;;;;9.90;5.10;;;4.60;99.90;;;;;;4147958;28;20041;-63
2022/04/04 02:22:28;;;;;;;8.48;5.88;;;4.50;99.90;;;;;;4151491;28;20041;-63
2022/04/04 02:24:29;;;;;;;8.40;6.03;;;4.50;99.90;;;;;;4151792;28;20050;-63
2022/04/04 02:26:29;;;;;;;9.02;5.07;;;4.40;99.90;;;;;;4149228;28;20053;-64
2022/04/04 02:28:30;;;;;;;7.72;5.07;;;4.40;99.90;;;;;;4154124;28;20121;-64
2022/04/04 02:30:31;;;;;;;8.18;5.50;;;4.50;99.90;;;;;;4150163;28;20052;-63
2022/04/04 02:32:31;;;;;;;10.18;5.05;;;4.50;99.90;;;;;;4144633;28;20030;-63
2022/04/04 02:34:32;;;;;;;9.18;5.53;;;4.50;99.90;;;;;;4144939;28;20112;-63
2022/04/04 02:36:32;;;;;;;8.52;5.32;;;4.50;99.90;;;;;;4144418;28;20082;-63
2022/04/04 02:38:33;;;;;;;11.73;6.07;;;4.50;99.90;;;;;;4141995;28;20034;-63
2022/04/04 02:40:34;;;;;;;9.88;6.07;;;4.50;99.90;;;;;;4143746;28;20117;-63
2022/04/04 02:42:35;;;;;;;8.38;6.10;;;4.50;99.90;;;;;;4144659;28;20041;-63
2022/04/04 02:44:36;;;;;;;8.60;6.28;;;4.40;99.90;;;;;;4145415;28;20038;-63
2022/04/04 02:46:36;;;;;;;10.48;6.28;;;4.30;99.90;;;;;;4142273;28;20030;-63
2022/04/04 02:48:37;;;;;;;10.73;6.13;;;4.30;99.90;;;;;;4144175;28;20054;-63
2022/04/04 02:50:38;;;;;;;8.68;5.60;;;4.30;99.90;;;;;;4144898;28;20490;-63
2022/04/04 02:52:38;;;;;;;10.07;5.78;;;4.30;99.90;;;;;;4140569;28;20548;-63
2022/04/04 02:54:39;;;;;;;7.05;5.13;;;4.30;99.90;;;;;;4145049;28;20092;-63
2022/04/04 02:56:41;;;;;;;8.95;6.07;;;4.30;99.90;;;;;;4142216;28;20054;-63
2022/04/04 02:58:42;;;;;;;9.27;5.95;;;4.20;99.90;;;;;;4145050;28;20025;-63
2022/04/04 03:00:43;;;;;;;8.55;5.65;;;4.30;99.90;;;;;;4145060;28;20034;-63
2022/04/04 03:02:45;;;;;;;7.85;5.72;;;4.30;99.90;;;;;;4145135;28;20034;-63
2022/04/04 03:04:46;;;;;;;10.20;5.57;;;4.30;99.90;;;;;;4143820;28;20385;-63
2022/04/04 03:06:46;;;;;;;7.63;5.22;;;4.20;99.90;;;;;;4142156;28;20041;-63
2022/04/04 03:08:47;;;;;;;7.82;5.40;;;4.20;99.90;;;;;;4143829;28;20134;-63
2022/04/04 03:10:48;;;;;;;7.32;5.50;;;4.20;99.90;;;;;;4142826;28;20042;-67
2022/04/04 03:12:50;;;;;;;9.73;5.57;;;4.20;99.90;;;;;;4147785;28;20362;-64
2022/04/04 03:14:51;;;;;;;11.98;6.10;;;4.30;99.90;;;;;;4145251;28;20034;-65
2022/04/04 03:16:51;;;;;;;10.88;6.03;;;4.30;99.90;;;;;;4142960;28;20036;-63
2022/04/04 03:18:54;;;;;;;11.18;6.00;;;4.20;99.90;;;;;;4146479;28;20045;-63
2022/04/04 03:20:54;;;;;;;11.73;7.00;;;4.20;99.90;;;;;;4146126;28;20421;-63
2022/04/04 03:22:57;;;;;;;13.57;6.95;;;4.10;99.90;;;;;;4150222;28;20042;-64
2022/04/04 03:24:57;;;;;;;12.20;6.18;;;4.20;99.90;;;;;;4149469;28;20125;-63
2022/04/04 03:26:58;;;;;;;12.52;6.32;;;4.30;99.90;;;;;;4146945;28;20394;-63
2022/04/04 03:28:58;;;;;;;13.80;6.20;;;4.20;99.90;;;;;;4151961;28;20476;-63
2022/04/04 03:30:59;;;;;;;11.45;6.15;;;4.30;99.90;;;;;;4147526;28;20572;-63
2022/04/04 03:32:59;;;;;;;11.05;6.20;;;4.20;99.90;;;;;;4145809;28;20065;-63
2022/04/04 03:35:02;;;;;;;13.98;6.55;;;4.20;99.90;;;;;;4144849;28;20041;-64
2022/04/04 03:37:02;;;;;;;9.20;6.00;;;4.20;99.90;;;;;;4148039;28;20049;-63
2022/04/04 03:39:03;;;;;;;9.40;5.60;;;4.20;99.90;;;;;;4151352;28;20029;-63
2022/04/04 03:41:04;;;;;;;9.27;4.75;;;4.20;99.90;;;;;;4145533;28;20116;-63
2022/04/04 03:43:05;;;;;;;8.18;5.13;;;4.30;99.90;;;;;;4152798;28;20119;-63
2022/04/04 03:45:06;;;;;;;6.55;4.78;;;4.30;99.90;;;;;;4149614;28;20037;-66
2022/04/04 03:47:07;;;;;;;8.57;5.15;;;4.20;99.90;;;;;;4145907;28;20057;-63
2022/04/04 03:49:08;;;;;;;6.70;4.50;;;4.20;99.90;;;;;;4151106;28;20026;-63
2022/04/04 03:51:09;;;;;;;6.18;4.40;;;4.30;99.90;;;;;;4148371;28;20390;-63
2022/04/04 03:53:10;;;;;;;9.98;5.15;;;4.30;99.90;;;;;;4149473;28;20037;-63
2022/04/04 03:55:12;;;;;;;6.68;5.00;;;4.30;99.90;;;;;;4148636;28;20538;-65
2022/04/04 03:57:13;;;;;;;10.50;5.22;;;4.20;99.90;;;;;;4149759;28;20048;-63
2022/04/04 03:59:13;;;;;;;9.30;5.10;;;4.20;99.90;;;;;;4150957;28;20109;-63
2022/04/04 04:01:14;;;;;;;8.07;5.05;;;4.20;99.90;;;;;;4148395;28;20038;-63
2022/04/04 04:03:14;;;;;;;8.05;4.90;;;4.20;99.90;;;;;;4145749;28;20116;-63
2022/04/04 04:05:15;;;;;;;8.82;5.63;;;4.20;99.90;;;;;;4149853;28;20030;-63
2022/04/04 04:07:18;;;;;;;14.27;5.50;;;4.20;99.90;;;;;;4149276;28;20034;-63
2022/04/04 04:09:19;;;;;;;12.13;5.55;;;4.10;99.90;;;;;;4141661;28;20100;-64
2022/04/04 04:11:21;;;;;;;11.25;5.30;;;4.10;99.90;;;;;;4141737;28;20066;-64
2022/04/04 04:13:21;;;;;;;9.07;5.33;;;4.00;99.90;;;;;;4141664;28;20501;-62
2022/04/04 04:15:23;;;;;;;7.80;5.13;;;4.00;99.90;;;;;;4141817;28;20273;-63
2022/04/04 04:17:25;;;;;;;9.33;5.30;;;4.10;99.90;;;;;;4142201;28;20449;-64
2022/04/04 04:21:45;;;;;;;9.52;5.22;;;4.10;99.90;;;;;;4141701;28;20026;-63
2022/04/04 04:23:45;;;;;;;8.48;5.20;;;4.00;99.90;;;;;;4142050;28;20036;-63
2022/04/04 04:25:46;;;;;;;10.10;5.95;;;4.00;99.90;;;;;;4139838;28;20037;-63
2022/04/04 04:27:47;;;;;;;7.88;4.93;;;4.00;99.90;;;;;;4142010;28;20090;-63
2022/04/04 04:29:48;;;;;;;8.43;5.45;;;4.00;99.90;;;;;;4140771;28;20046;-63
2022/04/04 04:31:48;;;;;;;8.27;5.35;;;4.10;99.90;;;;;;4141803;28;20165;-63
2022/04/04 04:33:49;;;;;;;8.80;5.50;;;4.10;99.90;;;;;;4140644;28;20068;-65
2022/04/04 04:35:50;;;;;;;9.07;5.88;;;4.10;99.90;;;;;;4140429;28;20070;-64
2022/04/04 04:37:51;;;;;;;9.27;5.95;;;4.10;99.90;;;;;;4139989;28;20061;-63
2022/04/04 04:39:52;;;;;;;10.23;5.95;;;4.10;99.90;;;;;;4140115;28;20041;-64
2022/04/04 04:41:53;;;;;;;10.95;6.65;;;4.10;99.90;;;;;;4140036;28;20543;-64
2022/04/04 04:43:54;;;;;;;10.27;6.10;;;4.20;99.90;;;;;;4141253;28;20038;-63
2022/04/04 04:45:54;;;;;;;8.32;5.72;;;4.20;99.90;;;;;;4140445;28;20049;-64
2022/04/04 04:47:55;;;;;;;9.90;6.07;;;4.20;99.90;;;;;;4140153;28;20049;-63
2022/04/04 04:49:56;;;;;;;10.38;6.72;;;4.20;99.90;;;;;;4140362;28;20103;-63
2022/04/04 04:51:57;;;;;;;9.45;6.25;;;4.20;99.90;;;;;;4140555;28;20034;-64
2022/04/04 04:53:57;;;;;;;11.23;6.55;;;4.20;99.90;;;;;;4140148;28;20478;-63
2022/04/04 04:55:58;;;;;;;13.25;6.32;;;4.20;99.90;;;;;;4139458;28;20034;-63
2022/04/04 04:57:59;;;;;;;10.07;6.25;;;4.30;99.90;;;;;;4139921;28;20393;-63
2022/04/04 05:00:03;;;;;;;10.38;6.18;;;4.20;99.90;;;;;;4139886;28;20322;-63
2022/04/04 05:02:04;;;;;;;9.13;6.25;;;4.20;99.90;;;;;;4140342;28;20533;-62
2022/04/04 05:04:05;;;;;;;8.38;5.53;;;4.20;99.90;;;;;;4143380;28;20030;-63
2022/04/04 05:06:06;;;;;;;8.60;6.20;;;4.20;99.90;;;;;;4147985;28;20034;-63
2022/04/04 05:08:07;;;;;;;9.55;6.38;;;4.20;99.90;;;;;;4142277;28;20133;-62
2022/04/04 05:10:08;;;;;;;8.35;5.78;;;4.20;99.90;;;;;;4145079;28;20125;-65
2022/04/04 05:12:08;;;;;;;13.05;6.90;;;4.20;99.90;;;;;;4140670;28;20034;-63
2022/04/04 05:14:15;;;;;;;10.98;6.38;;;4.20;99.90;;;;;;4143185;28;20041;-62
2022/04/04 05:16:15;;;;;;;12.60;6.45;;;4.20;99.90;;;;;;4145125;28;20034;-63
2022/04/04 05:18:16;;;;;;;11.27;6.32;;;4.20;99.90;;;;;;4146925;28;20078;-63
2022/04/04 05:20:17;;;;;;;10.85;6.50;;;4.20;99.90;;;;;;4146073;28;20444;-63
2022/04/04 05:22:17;;;;;;;11.50;7.03;;;4.20;99.90;;;;;;4145366;28;20042;-63
2022/04/04 05:24:18;;;;;;;11.18;6.85;;;4.20;99.90;;;;;;4143143;28;20026;-63
2022/04/04 05:26:19;;;;;;;11.10;7.15;;;4.20;99.90;;;;;;4144908;28;20422;-63
2022/04/04 05:28:20;;;;;;;16.25;7.28;;;4.20;99.90;;;;;;4151470;28;20421;-63
2022/04/04 05:30:20;;;;;;;11.70;6.43;;;4.20;99.90;;;;;;4146956;28;20038;-64
2022/04/04 05:32:21;;;;;;;14.55;7.55;;;4.20;99.90;;;;;;4147428;28;20095;-64
2022/04/04 05:34:25;;;;;;;12.73;7.00;;;4.20;99.90;;;;;;4132499;28;20038;-63
2022/04/04 05:36:27;;;;;;;13.93;7.13;;;4.30;99.90;;;;;;4142369;28;20044;-64
2022/04/04 05:38:28;;;;;;;15.88;7.18;;;4.30;99.90;;;;;;4145412;28;20030;-64
2022/04/04 05:40:28;;;;;;;11.90;7.35;;;4.30;99.90;;;;;;4144582;28;20120;-64
2022/04/04 05:42:30;;;;;;;12.85;7.40;;;4.30;99.90;;;;;;4144373;28;20540;-63
2022/04/04 05:44:32;;;;;;;14.60;8.00;;;4.30;99.90;;;;;;4147780;28;20079;-64
2022/04/04 05:46:33;;;;;;;19.20;7.85;;;4.30;99.90;;;;;;4146677;28;20402;-63
2022/04/04 05:48:34;;;;;;;19.30;9.10;;;4.30;99.90;;;;;;4144226;28;20034;-63
2022/04/04 05:50:35;;;;;;;16.48;7.78;;;4.30;99.90;;;;;;4145253;28;20378;-63
2022/04/04 05:52:36;;;;;;;26.42;7.75;;;4.40;99.90;;;;;;4146161;28;20137;-63
2022/04/04 05:54:53;;;;;;;16.13;8.27;;;4.30;99.90;;;;;;4144041;28;20176;-64
2022/04/04 05:56:54;;;;;;;14.48;8.02;;;4.30;99.90;;;;;;4147337;28;20453;-64
2022/04/04 05:58:55;;;;;;;15.15;7.90;;;4.40;99.90;;;;;;4148178;28;20037;-64
2022/04/04 06:00:56;;;;;;;14.57;7.65;;;4.40;99.90;;;;;;4149143;28;20442;-64
2022/04/04 06:02:57;;;;;;;19.48;8.88;;;4.40;99.90;;;;;;4147945;28;20026;-63
2022/04/04 06:04:57;;;;;;;15.43;7.85;;;4.40;99.90;;;;;;4150478;28;20089;-64
2022/04/04 06:06:58;;;;;;;17.00;8.73;;;4.40;99.90;;;;;;4148388;28;20439;-63
2022/04/04 06:08:59;;;;;;;18.15;7.93;;;4.40;99.90;;;;;;4150351;28;20445;-64
2022/04/04 06:11:00;;;;;;;12.75;7.43;;;4.40;99.90;;;;;;4148087;28;20068;-64
2022/04/04 06:13:00;;;;;;;17.17;7.95;;;4.50;99.90;;;;;;4143888;28;20185;-64
2022/04/04 06:15:01;;;;;;;18.73;8.13;;;4.50;99.90;;;;;;4142381;28;20048;-64
2022/04/04 06:17:05;;;;;;;13.52;7.20;;;4.50;99.90;;;;;;4140794;28;20045;-64
2022/04/04 06:19:05;;;;;;;15.75;7.55;;;4.50;99.90;;;;;;4143009;28;20034;-65
2022/04/04 06:21:06;;;;;;;13.43;7.22;;;4.50;99.90;;;;;;4148509;28;20030;-64
2022/04/04 06:23:07;;;;;;;13.80;7.43;;;4.50;99.90;;;;;;4142046;28;20058;-65
2022/04/04 06:25:09;;;;;;;12.25;7.20;;;4.70;99.90;;;;;;4141100;28;20046;-67
2022/04/04 06:27:10;;;;;;;15.68;7.75;;;4.70;99.90;;;;;;4141028;28;20107;-65
2022/04/04 06:29:11;;;;;;;14.63;7.60;;;4.80;99.90;;;;;;4141683;28;20046;-65
2022/04/04 06:31:11;;;;;;;12.73;7.22;;;4.80;99.90;;;;;;4141599;28;20497;-65
2022/04/04 06:33:12;;;;;;;14.45;7.47;;;4.90;99.90;;;;;;4141885;28;20410;-65
2022/04/04 06:35:14;;;;;;;19.45;7.63;;;4.90;99.90;;;;;;4142217;28;20045;-65
2022/04/04 06:37:16;;;;;;;17.08;7.18;;;5.00;99.90;;;;;;4140208;28;20405;-65
2022/04/04 06:39:17;;;;;;;14.82;7.53;;;5.10;99.90;;;;;;4137582;28;20777;-65
2022/04/04 06:41:18;;;;;;;10.43;6.75;;;5.10;99.90;;;;;;4139309;28;20037;-65
2022/04/04 06:43:19;;;;;;;16.73;7.97;;;5.10;99.90;;;;;;4142290;28;20045;-65
2022/04/04 06:45:20;;;;;;;15.43;7.85;;;5.10;99.90;;;;;;4139024;28;20117;-65
2022/04/04 06:47:21;;;;;;;14.05;7.15;;;5.20;99.90;;;;;;4137572;28;21028;-62
2022/04/04 06:49:22;;;;;;;14.05;7.85;;;5.20;99.90;;;;;;4124166;28;20045;-63
2022/04/04 06:51:23;;;;;;;13.35;8.35;;;5.20;99.90;;;;;;4141534;28;20051;-63
2022/04/04 06:53:24;;;;;;;13.35;7.45;;;5.20;99.90;;;;;;4141199;28;20053;-63
2022/04/04 06:55:24;;;;;;;13.75;6.88;;;5.20;99.90;;;;;;4141589;28;20048;-62
2022/04/04 06:57:25;;;;;;;16.40;8.18;;;5.30;99.90;;;;;;4142298;28;20042;-63
2022/04/04 06:59:25;;;;;;;15.27;7.35;;;5.30;99.90;;;;;;4141741;28;20504;-63
2022/04/04 07:01:26;;;;;;;12.68;7.43;;;5.30;99.90;;;;;;4141499;28;20034;-63
2022/04/04 07:03:27;;;;;;;14.82;7.68;;;5.40;99.90;;;;;;4141878;28;20915;-63
2022/04/04 07:05:27;;;;;;;14.10;7.65;;;5.40;99.90;;;;;;4142299;28;20061;-63
2022/04/04 07:07:28;;;;;;;14.48;7.40;;;5.40;99.90;;;;;;4143043;28;20042;-63
2022/04/04 07:09:29;;;;;;;15.75;7.75;;;5.50;99.90;;;;;;4141940;28;20053;-63
2022/04/04 07:11:30;;;;;;;15.88;7.93;;;5.50;99.90;;;;;;4140950;28;20046;-63
2022/04/04 07:13:32;;;;;;;15.68;7.28;;;5.50;99.90;;;;;;4140759;28;20045;-63
2022/04/04 07:15:33;;;;;;;12.82;6.68;;;5.60;99.90;;;;;;4140956;28;20533;-65
2022/04/04 07:17:34;;;;;;;16.17;7.50;;;5.60;99.90;;;;;;4142700;28;20084;-65
2022/04/04 07:19:34;;;;;;;15.02;7.85;;;5.70;99.90;;;;;;4142508;28;20489;-65
2022/04/04 07:21:35;;;;;;;15.52;7.45;;;5.60;99.90;;;;;;4139584;28;20386;-65
2022/04/04 07:23:36;;;;;;;13.43;7.13;;;5.70;99.90;;;;;;4140922;28;20466;-65
2022/04/04 07:25:36;;;;;;;13.55;7.45;;;5.70;99.90;;;;;;4141445;28;20172;-64
2022/04/04 07:27:42;;;;;;;14.90;7.38;;;5.80;99.90;;;;;;4140235;28;20488;-65
2022/04/04 07:29:42;;;;;;;15.30;7.80;;;5.90;99.90;;;;;;4141166;28;20386;-65
2022/04/04 07:31:43;;;;;;;10.27;6.57;;;5.90;99.90;;;;;;4140773;28;20037;-65
2022/04/04 07:33:44;;;;;;;14.23;7.32;;;6.00;99.90;;;;;;4142066;28;20065;-65
2022/04/04 07:35:45;;;;;;;9.57;6.78;;;6.00;99.90;;;;;;4140128;28;20101;-65
2022/04/04 07:37:47;;;;;;;10.50;6.72;;;6.20;99.90;;;;;;4141427;28;20048;-65
2022/04/04 07:39:48;;;;;;;12.48;6.63;;;6.20;99.90;;;;;;4141127;28;20057;-65
2022/04/04 07:41:49;;;;;;;11.93;7.15;;;6.20;99.90;;;;;;4141612;28;20374;-65
2022/04/04 07:43:49;;;;;;;11.27;7.20;;;6.30;99.90;;;;;;4140596;28;21482;-65
2022/04/04 07:45:50;;;;;;;12.55;7.07;;;6.40;99.90;;;;;;4140865;28;20065;-65
2022/04/04 07:47:50;;;;;;;13.38;6.65;;;6.40;99.90;;;;;;4139702;28;20061;-65
2022/04/04 07:49:51;;;;;;;10.65;6.07;;;6.50;99.90;;;;;;4141407;28;20048;-65
2022/04/04 07:51:52;;;;;;;12.65;7.05;;;6.60;99.90;;;;;;4140613;28;20034;-66
2022/04/04 07:53:53;;;;;;;13.88;6.93;;;6.60;99.90;;;;;;4140507;28;20133;-66
2022/04/04 07:55:53;;;;;;;10.98;6.63;;;6.70;99.90;;;;;;4143055;28;20058;-65
2022/04/04 07:57:54;;;;;;;12.45;7.05;;;6.70;99.90;;;;;;4141192;28;20033;-65
2022/04/04 07:59:54;;;;;;;11.75;6.32;;;6.70;99.90;;;;;;4141282;28;20046;-65
2022/04/04 08:01:55;;;;;;;11.30;7.32;;;6.80;99.90;;;;;;4141177;28;20473;-63
2022/04/04 08:03:56;;;;;;;12.20;6.72;;;6.80;99.90;;;;;;4141247;28;20112;-63
2022/04/04 08:05:56;;;;;;;12.15;6.90;;;6.80;99.90;;;;;;4140318;28;20038;-64
2022/04/04 08:07:57;;;;;;;13.65;6.60;;;6.80;99.90;;;;;;4141839;28;20042;-63
2022/04/04 08:09:58;;;;;;;17.02;5.88;;;6.90;99.90;;;;;;4141466;28;20133;-62
2022/04/04 08:11:58;;;;;;;10.27;5.95;;;6.90;99.90;;;;;;4140833;28;20041;-64
2022/04/04 08:13:59;;;;;;;9.30;6.15;;;7.00;99.90;;;;;;4141288;28;20038;-62
2022/04/04 08:16:00;;;;;;;10.38;6.78;;;7.00;99.90;;;;;;4141812;28;20034;-63
2022/04/04 08:18:03;;;;;;;12.38;6.90;;;7.00;99.90;;;;;;4141511;28;20481;-63
2022/04/04 08:20:04;;;;;;;10.38;6.72;;;7.00;99.90;;;;;;4140684;28;20042;-63
2022/04/04 08:22:05;;;;;;;11.75;7.38;;;7.10;99.90;;;;;;4141518;28;20428;-62
2022/04/04 08:24:05;;;;;;;10.65;6.93;;;7.00;99.90;;;;;;4141241;28;20109;-63
2022/04/04 08:26:06;;;;;;;10.02;6.43;;;7.00;99.90;;;;;;4140046;28;20424;-63
2022/04/04 08:28:07;;;;;;;9.48;6.38;;;7.10;99.90;;;;;;4140172;28;20029;-62
2022/04/04 08:30:10;;;;;;;11.52;7.13;;;7.20;99.90;;;;;;4139819;28;20034;-63
2022/04/04 08:32:11;;;;;;;10.40;6.60;;;7.20;99.90;;;;;;4140584;28;20041;-63
2022/04/04 08:34:12;;;;;;;10.20;6.25;;;7.20;99.90;;;;;;4139590;28;20076;-63
2022/04/04 08:36:13;;;;;;;11.95;7.45;;;7.30;99.90;;;;;;4140392;28;20042;-65
2022/04/04 08:38:13;;;;;;;11.48;6.18;;;7.30;99.90;;;;;;4139695;28;20038;-65
2022/04/04 08:40:18;;;;;;;9.73;6.32;;;7.30;99.90;;;;;;4137769;28;20492;-65
2022/04/04 08:42:26;;;;;;;12.93;6.53;;;7.40;99.90;;;;;;4141032;28;20482;-65
2022/04/04 08:44:28;;;;;;;10.10;5.72;;;7.30;99.90;;;;;;4140335;28;20037;-66
2022/04/04 08:46:29;;;;;;;14.32;6.88;;;7.30;99.90;;;;;;4140228;28;20030;-66
2022/04/04 08:48:31;;;;;;;12.60;6.80;;;7.30;99.90;;;;;;4140726;28;20531;-65
2022/04/04 08:50:32;;;;;;;11.38;6.25;;;7.30;99.90;;;;;;4137795;28;20132;-65
2022/04/04 08:52:33;;;;;;;10.15;5.68;;;7.40;99.90;;;;;;4140900;28;20050;-65
2022/04/04 08:54:34;;;;;;;11.85;6.40;;;7.40;99.90;;;;;;4141153;28;20156;-66
2022/04/04 08:56:35;;;;;;;9.55;6.30;;;7.40;99.90;;;;;;4139660;28;20057;-66
2022/04/04 08:58:36;;;;;;;14.60;5.88;;;7.40;99.90;;;;;;4140338;28;20038;-66
2022/04/04 09:00:38;;;;;;;9.10;5.65;;;7.40;99.90;;;;;;4140377;28;20041;-65
2022/04/04 09:02:39;;;;;;;18.95;6.47;;;7.30;99.90;;;;;;4145633;28;20481;-63
2022/04/04 09:04:40;;;;;;;11.52;6.07;;;7.30;99.90;;;;;;4140425;28;20081;-63
2022/04/04 09:06:52;;;;;;;14.15;6.50;;;7.30;99.90;;;;;;4140592;28;20034;-63
2022/04/04 09:08:53;;;;;;;9.70;6.25;;;7.30;99.90;;;;;;4140375;28;20046;-63
2022/04/04 09:10:56;;;;;;;7.85;5.80;;;7.30;99.90;;;;;;4141067;28;20122;-63
2022/04/04 09:13:05;;;;;;;9.25;5.60;;;7.40;99.90;;;;;;4140661;28;20034;-63
2022/04/04 09:15:06;;;;;;;9.43;5.93;;;7.40;99.90;;;;;;4139827;28;20121;-64
2022/04/04 09:17:07;;;;;;;8.02;5.40;;;7.40;99.90;;;;;;4139692;28;20070;-63
2022/04/04 09:19:08;;;;;;;8.93;5.80;;;7.40;99.90;;;;;;4139896;28;20049;-63
2022/04/04 09:21:31;;;;;;;11.40;5.85;;;7.30;99.90;;;;;;4139557;28;20092;-63
2022/04/04 09:23:33;;;;;;;9.48;5.82;;;7.30;99.90;;;;;;4141078;28;20156;-63
2022/04/04 09:25:34;;;;;;;8.88;5.53;;;7.40;99.90;;;;;;4137482;28;20054;-63
2022/04/04 09:27:36;;;;;;;9.15;6.18;;;7.30;99.90;;;;;;4139685;28;20069;-63
2022/04/04 09:29:41;;;;;;;8.05;5.60;;;7.30;99.90;;;;;;4139914;28;20089;-63
2022/04/04 09:32:14;;;;;;;12.13;5.93;;;7.30;99.90;;;;;;4138872;28;20033;-63
2022/04/04 09:34:14;;;;;;;9.52;5.88;;;7.30;99.90;;;;;;4139209;28;20109;-63
2022/04/04 09:36:15;;;;;;;13.43;6.00;;;7.30;99.90;;;;;;4139417;28;20050;-63
2022/04/04 09:38:16;;;;;;;10.70;6.15;;;7.20;99.90;;;;;;4141060;28;20041;-63
2022/04/04 09:40:24;;;;;;;9.57;6.13;;;7.20;99.90;;;;;;4138780;28;20030;-63
2022/04/04 09:42:25;;;;;;;11.60;6.43;;;7.10;99.90;;;;;;4139297;28;20053;-63
2022/04/04 09:44:26;;;;;;;13.48;5.85;;;7.10;99.90;;;;;;4139091;28;20417;-63
2022/04/04 09:46:34;;;;;;;9.20;5.70;;;7.10;99.90;;;;;;4139252;28;20041;-63
2022/04/04 09:48:35;;;;;;;9.45;5.90;;;7.10;99.90;;;;;;4140792;28;20073;-66
2022/04/04 09:50:50;;;;;;;10.23;5.68;;;7.10;99.90;;;;;;4139804;28;20124;-65
2022/04/04 09:52:51;;;;;;;12.45;5.43;;;7.20;99.90;;;;;;4140004;28;20057;-64
2022/04/04 09:54:52;;;;;;;9.32;5.97;;;7.10;99.90;;;;;;4105488;28;20233;-64
2022/04/04 09:57:16;;;;;;;13.02;5.63;;;7.20;99.90;;;;;;4139062;28;20038;-63
2022/04/04 09:59:17;;;;;;;9.90;5.60;;;7.20;99.90;;;;;;4139580;28;20052;-63
2022/04/04 10:01:18;;;;;;;11.07;5.97;;;7.30;99.90;;;;;;4138896;28;20042;-63
2022/04/04 10:03:20;;;;;;;12.10;6.47;;;7.30;99.90;;;;;;4143086;28;20496;-64
2022/04/04 10:05:23;;;;;;;8.30;5.78;;;7.30;99.90;;;;;;4141638;28;20057;-64
2022/04/04 10:07:24;;;;;;;10.40;6.18;;;7.40;99.90;;;;;;4143067;28;20042;-66
2022/04/04 10:09:25;;;;;;;11.60;5.68;;;7.40;99.90;;;;;;4143503;28;20046;-65
2022/04/04 10:11:27;;;;;;;10.75;6.45;;;7.50;99.90;;;;;;4141600;28;20180;-64
2022/04/04 10:13:29;;;;;;;9.55;6.07;;;7.40;99.90;;;;;;4142395;28;20489;-64
2022/04/04 10:15:29;;;;;;;12.20;5.90;;;7.50;99.90;;;;;;4142673;28;20045;-64
2022/04/04 10:17:31;;;;;;;15.90;7.10;;;7.50;99.90;;;;;;4143248;28;20117;-64
2022/04/04 10:19:33;;;;;;;11.27;6.40;;;7.50;99.90;;;;;;4142783;28;20398;-64
2022/04/04 10:21:34;;;;;;;;;;;7.50;99.90;;;;;;4143728;28;20045;-65
2022/04/04 10:23:37;;;;;;;12.85;6.57;;;7.40;99.90;;;;;;4142367;28;20304;-64
2022/04/04 10:25:38;;;;;;;10.13;7.03;;;7.30;99.90;;;;;;4141389;28;20045;-64
2022/04/04 10:27:39;;;;;;;9.93;6.53;;;7.30;99.90;;;;;;4142996;28;20513;-64
2022/04/04 10:29:47;;;;;;;15.88;7.70;;;7.30;99.90;;;;;;4142174;28;20141;-64
2022/04/04 10:31:55;;;;;;;12.70;6.78;;;7.20;99.90;;;;;;4141619;28;20038;-64
2022/04/04 10:34:09;;;;;;;15.90;7.15;;;7.20;99.90;;;;;;4124469;28;20042;-65
2022/04/04 10:36:12;;;;;;;11.65;6.65;;;7.20;99.90;;;;;;4142072;28;20041;-64
2022/04/04 10:38:12;;;;;;;;;;;7.10;99.90;;;;;;4141894;28;20061;-64
2022/04/04 10:40:18;;;;;;;12.43;6.75;;;7.20;99.90;;;;;;4141287;28;19910;-64
2022/04/04 10:42:31;;;;;;;14.38;6.57;;;7.10;99.90;;;;;;4142630;28;20036;-64